createdAt,value
2018-04-12T00:00:06.184Z,10.30
2018-04-12T00:02:35.476Z,10.77
2018-04-12T00:05:04.797Z,9.40
2018-04-12T00:07:34.089Z,14.20
2018-04-12T00:10:03.471Z,10.43
2018-04-12T00:12:32.983Z,14.00
2018-04-12T00:15:02.225Z,12.17
2018-04-12T00:17:31.443Z,11.90
2018-04-12T00:20:00.701Z,13.13
2018-04-12T00:22:29.921Z,10.93
2018-04-12T00:24:59.241Z,10.83
2018-04-12T00:27:29.060Z,10.57
2018-04-12T00:29:59.172Z,8.77
2018-04-12T00:32:28.614Z,8.40
2018-04-12T00:34:57.915Z,9.63
2018-04-12T00:37:27.124Z,8.97
2018-04-12T00:39:56.286Z,10.07
2018-04-12T00:42:26.326Z,10.83
2018-04-12T00:44:56.443Z,8.87
2018-04-12T00:47:25.641Z,9.87
2018-04-12T00:49:54.944Z,9.53
2018-04-12T00:52:24.145Z,8.30
2018-04-12T00:54:53.451Z,10.03
2018-04-12T00:57:23.424Z,7.60
2018-04-12T00:59:52.699Z,8.73
2018-04-12T01:02:26.066Z,9.67
2018-04-12T01:04:55.244Z,8.90
2018-04-12T01:07:24.502Z,7.57
2018-04-12T01:09:53.692Z,8.70
2018-04-12T01:12:23.052Z,7.63
2018-04-12T01:14:52.555Z,8.70
2018-04-12T01:17:21.907Z,9.70
2018-04-12T01:19:51.171Z,9.93
2018-04-12T01:22:20.422Z,8.57
2018-04-12T01:24:49.663Z,7.40
2018-04-12T01:27:18.872Z,8.00
2018-04-12T01:29:48.867Z,9.60
2018-04-12T01:32:18.176Z,7.27
2018-04-12T01:34:47.470Z,6.70
2018-04-12T01:37:16.555Z,8.67
2018-04-12T01:39:45.768Z,7.93
2018-04-12T01:42:15.100Z,8.00
2018-04-12T01:44:44.575Z,8.30
2018-04-12T01:47:13.852Z,7.67
2018-04-12T01:49:43.069Z,7.30
2018-04-12T01:52:12.325Z,7.67
2018-04-12T01:54:41.769Z,7.70
2018-04-12T01:57:11.073Z,7.23
2018-04-12T01:59:40.259Z,7.30
2018-04-12T02:02:09.560Z,8.03
2018-04-12T02:04:38.753Z,7.07
2018-04-12T02:07:07.964Z,8.20
2018-04-12T02:09:37.172Z,9.23
2018-04-12T02:12:06.367Z,5.53
2018-04-12T02:14:35.576Z,7.57
2018-04-12T02:17:04.792Z,7.17
2018-04-12T02:19:34.776Z,10.47
2018-04-12T02:22:06.807Z,7.20
2018-04-12T02:24:36.045Z,6.50
2018-04-12T02:27:06.176Z,6.83
2018-04-12T02:29:36.170Z,6.27
2018-04-12T02:32:05.414Z,8.23
2018-04-12T02:34:34.662Z,7.33
2018-04-12T02:37:03.633Z,8.00
2018-04-12T02:39:32.878Z,5.17
2018-04-12T02:42:02.101Z,7.73
2018-04-12T02:44:31.350Z,6.60
2018-04-12T02:47:00.637Z,8.50
2018-04-12T02:49:30.001Z,4.90
2018-04-12T02:51:59.417Z,6.90
2018-04-12T02:54:28.680Z,7.53
2018-04-12T02:56:57.957Z,6.10
2018-04-12T02:59:27.219Z,6.47
2018-04-12T03:01:56.509Z,7.53
2018-04-12T03:04:26.430Z,5.77
2018-04-12T03:06:56.212Z,5.93
2018-04-12T03:09:26.187Z,9.23
2018-04-12T03:11:55.597Z,8.23
2018-04-12T03:14:24.848Z,6.87
2018-04-12T03:16:54.800Z,3.80
2018-04-12T03:19:23.995Z,5.27
2018-04-12T03:21:53.188Z,6.87
2018-04-12T03:24:22.512Z,5.50
2018-04-12T03:26:51.695Z,8.17
2018-04-12T03:29:20.909Z,5.17
2018-04-12T03:31:50.138Z,7.37
2018-04-12T03:34:19.320Z,7.83
2018-04-12T03:36:48.600Z,10.13
2018-04-12T03:39:17.806Z,5.93
2018-04-12T03:41:47.305Z,7.60
2018-04-12T03:44:16.415Z,6.27
2018-04-12T03:46:45.604Z,5.50
2018-04-12T03:49:15.649Z,6.97
2018-04-12T03:51:45.632Z,8.33
2018-04-12T03:54:14.881Z,5.90
2018-04-12T03:56:44.167Z,8.83
2018-04-12T03:59:13.536Z,6.70
2018-04-12T04:01:42.815Z,8.03
2018-04-12T04:04:12.737Z,9.60
2018-04-12T04:06:42.152Z,5.23
2018-04-12T04:09:11.350Z,9.10
2018-04-12T04:11:40.657Z,7.83
2018-04-12T04:14:21.543Z,7.80
2018-04-12T04:17:03.528Z,6.80
2018-04-12T04:19:44.438Z,8.40
2018-04-12T04:22:13.857Z,5.73
2018-04-12T04:24:43.140Z,7.40
2018-04-12T04:27:12.409Z,6.83
2018-04-12T04:29:41.616Z,8.33
2018-04-12T04:32:10.831Z,4.90
2018-04-12T04:34:40.062Z,5.70
2018-04-12T04:37:09.487Z,8.20
2018-04-12T04:39:38.832Z,9.13
2018-04-12T04:42:08.779Z,5.53
2018-04-12T04:44:38.054Z,8.83
2018-04-12T04:47:07.332Z,6.70
2018-04-12T04:49:37.320Z,10.07
2018-04-12T04:52:06.825Z,9.73
2018-04-12T04:54:36.035Z,9.30
2018-04-12T04:57:05.246Z,9.63
2018-04-12T04:59:34.613Z,8.20
2018-04-12T05:02:03.931Z,6.63
2018-04-12T05:04:33.905Z,4.80
2018-04-12T05:07:03.149Z,11.47
2018-04-12T05:09:32.383Z,8.63
2018-04-12T05:12:01.739Z,4.63
2018-04-12T05:14:30.926Z,8.13
2018-04-12T05:17:00.200Z,11.67
2018-04-12T05:19:29.431Z,6.80
2018-04-12T05:21:58.680Z,9.23
2018-04-12T05:24:28.701Z,8.30
2018-04-12T05:26:57.987Z,6.97
2018-04-12T05:29:27.153Z,6.53
2018-04-12T05:31:56.407Z,6.73
2018-04-12T05:34:25.627Z,6.77
2018-04-12T05:36:55.165Z,7.37
2018-04-12T05:39:24.419Z,8.07
2018-04-12T05:41:53.785Z,6.63
2018-04-12T05:44:23.979Z,8.57
2018-04-12T05:46:53.092Z,6.90
2018-04-12T05:49:22.358Z,8.83
2018-04-12T05:51:51.580Z,9.17
2018-04-12T05:54:20.765Z,7.63
2018-04-12T05:56:50.063Z,8.80
2018-04-12T05:59:19.340Z,4.43
2018-04-12T06:01:50.166Z,7.47
2018-04-12T06:04:19.415Z,5.10
2018-04-12T06:06:48.782Z,8.17
2018-04-12T06:09:18.043Z,8.50
2018-04-12T06:11:47.359Z,7.03
2018-04-12T06:14:16.613Z,6.93
2018-04-12T06:16:46.714Z,4.83
2018-04-12T06:19:15.758Z,4.60
2018-04-12T06:21:44.960Z,5.87
2018-04-12T06:24:14.308Z,9.97
2018-04-12T06:26:43.547Z,5.70
2018-04-12T06:29:12.737Z,7.33
2018-04-12T06:31:42.673Z,6.33
2018-04-12T06:34:12.685Z,7.50
2018-04-12T06:36:41.842Z,8.33
2018-04-12T06:39:11.134Z,6.23
2018-04-12T06:41:40.328Z,7.50
2018-04-12T06:44:09.655Z,7.70
2018-04-12T06:46:39.273Z,4.50
2018-04-12T06:49:09.356Z,8.07
2018-04-12T06:51:38.757Z,7.93
2018-04-12T06:54:07.914Z,5.47
2018-04-12T06:56:37.267Z,5.87
2018-04-12T06:59:06.495Z,6.83
2018-04-12T07:01:36.794Z,7.03
2018-04-12T07:04:06.319Z,7.10
2018-04-12T07:06:35.543Z,6.13
2018-04-12T07:09:04.685Z,7.27
2018-04-12T07:11:33.880Z,6.50
2018-04-12T07:14:03.074Z,4.67
2018-04-12T07:16:32.434Z,7.93
2018-04-12T07:19:01.772Z,6.67
2018-04-12T07:21:30.981Z,6.00
2018-04-12T07:24:00.213Z,5.23
2018-04-12T07:26:30.249Z,6.13
2018-04-12T07:28:59.422Z,4.13
2018-04-12T07:31:28.788Z,8.80
2018-04-12T07:33:57.986Z,6.43
2018-04-12T07:36:27.180Z,7.13
2018-04-12T07:38:57.255Z,8.77
2018-04-12T07:41:26.316Z,5.27
2018-04-12T07:43:56.357Z,7.50
2018-04-12T07:46:25.613Z,6.47
2018-04-12T07:48:54.807Z,5.33
2018-04-12T07:51:24.107Z,7.80
2018-04-12T07:53:53.365Z,8.30
2018-04-12T07:56:22.697Z,7.97
2018-04-12T07:58:51.910Z,4.47
2018-04-12T08:01:21.084Z,6.50
2018-04-12T08:03:50.372Z,8.07
2018-04-12T08:06:19.583Z,4.80
2018-04-12T08:08:48.823Z,4.97
2018-04-12T08:11:19.223Z,7.87
2018-04-12T08:13:48.410Z,6.97
2018-04-12T08:16:17.669Z,5.33
2018-04-12T08:18:47.129Z,4.77
2018-04-12T08:21:16.333Z,3.53
2018-04-12T08:23:45.614Z,6.90
2018-04-12T08:26:14.792Z,5.90
2018-04-12T08:28:44.032Z,7.87
2018-04-12T08:31:13.332Z,6.40
2018-04-12T08:33:42.525Z,6.43
2018-04-12T08:36:11.676Z,8.47
2018-04-12T08:38:41.123Z,7.23
2018-04-12T08:41:10.266Z,9.37
2018-04-12T08:43:39.720Z,4.53
2018-04-12T08:46:08.917Z,4.73
2018-04-12T08:48:38.124Z,8.33
2018-04-12T08:51:07.415Z,4.07
2018-04-12T08:53:36.657Z,5.57
2018-04-12T08:56:06.013Z,5.47
2018-04-12T08:58:35.187Z,7.63
2018-04-12T09:01:04.572Z,4.90
2018-04-12T09:03:33.770Z,7.00
2018-04-12T09:06:03.829Z,5.00
2018-04-12T09:08:33.103Z,6.53
2018-04-12T09:11:05.522Z,5.33
2018-04-12T09:13:34.887Z,6.90
2018-04-12T09:16:04.103Z,6.67
2018-04-12T09:18:33.323Z,4.43
2018-04-12T09:21:03.469Z,4.50
2018-04-12T09:23:33.456Z,9.37
2018-04-12T09:26:03.477Z,5.00
2018-04-12T09:28:33.591Z,7.33
2018-04-12T09:31:02.983Z,7.70
2018-04-12T09:33:32.195Z,8.57
2018-04-12T09:36:01.430Z,5.83
2018-04-12T09:38:30.604Z,6.10
2018-04-12T09:41:00.619Z,8.77
2018-04-12T09:43:29.958Z,4.30
2018-04-12T09:45:58.982Z,8.30
2018-04-12T09:48:28.194Z,5.20
2018-04-12T09:50:57.479Z,3.20
2018-04-12T09:53:26.667Z,5.70
2018-04-12T09:55:55.688Z,6.57
2018-04-12T09:58:24.973Z,3.67
2018-04-12T10:00:56.278Z,5.43
2018-04-12T10:03:25.488Z,5.23
2018-04-12T10:06:00.193Z,2.47
2018-04-12T10:08:29.513Z,2.97
2018-04-12T10:10:58.830Z,6.03
2018-04-12T10:13:28.353Z,4.73
2018-04-12T10:15:57.656Z,1.50
2018-04-12T10:18:26.984Z,3.37
2018-04-12T10:20:56.139Z,3.60
2018-04-12T10:23:25.449Z,4.57
2018-04-12T10:25:54.670Z,6.67
2018-04-12T10:28:23.924Z,3.97
2018-04-12T10:30:53.149Z,4.10
2018-04-12T10:33:22.362Z,2.83
2018-04-12T10:35:51.646Z,3.67
2018-04-12T10:38:21.188Z,2.37
2018-04-12T10:40:50.456Z,6.27
2018-04-12T10:43:19.661Z,2.50
2018-04-12T10:45:48.641Z,2.43
2018-04-12T10:48:17.760Z,4.50
2018-04-12T10:50:47.751Z,2.03
2018-04-12T10:53:17.042Z,3.63
2018-04-12T10:55:46.276Z,2.47
2018-04-12T10:58:15.273Z,3.03
2018-04-12T11:00:44.575Z,3.23
2018-04-12T11:03:13.777Z,2.47
2018-04-12T11:05:42.980Z,2.77
2018-04-12T11:08:12.172Z,4.70
2018-04-12T11:10:41.421Z,1.87
2018-04-12T11:13:10.615Z,3.57
2018-04-12T11:15:39.792Z,3.57
2018-04-12T11:18:08.983Z,2.57
2018-04-12T11:20:38.209Z,3.40
2018-04-12T11:23:07.480Z,2.87
2018-04-12T11:25:36.587Z,4.87
2018-04-12T11:28:05.859Z,2.40
2018-04-12T11:30:35.105Z,5.22
2018-04-12T11:33:04.301Z,2.30
2018-04-12T11:35:34.562Z,1.57
2018-04-12T11:38:03.836Z,4.20
2018-04-12T11:40:33.112Z,4.62
2018-04-12T11:43:02.386Z,2.20
2018-04-12T11:45:32.389Z,3.07
2018-04-12T11:48:01.609Z,3.83
2018-04-12T11:50:30.840Z,3.60
2018-04-12T11:53:00.079Z,2.93
2018-04-12T11:55:29.248Z,2.07
2018-04-12T11:57:59.365Z,2.40
2018-04-12T12:00:28.972Z,2.47
2018-04-12T12:02:59.101Z,3.80
2018-04-12T12:05:28.379Z,3.08
2018-04-12T12:07:57.604Z,3.70
2018-04-12T12:10:26.863Z,2.33
2018-04-12T12:12:56.248Z,1.80
2018-04-12T12:15:25.454Z,2.77
2018-04-12T12:17:54.648Z,2.70
2018-04-12T12:20:23.866Z,2.85
2018-04-12T12:22:53.087Z,3.55
2018-04-12T12:25:22.277Z,2.55
2018-04-12T12:27:51.432Z,5.37
2018-04-12T12:30:20.659Z,4.93
2018-04-12T12:32:49.825Z,5.22
2018-04-12T12:35:18.998Z,1.83
2018-04-12T12:37:49.012Z,4.25
2018-04-12T12:40:19.111Z,2.27
2018-04-12T12:42:48.370Z,1.87
2018-04-12T12:45:17.569Z,2.30
2018-04-12T12:47:46.793Z,2.80
2018-04-12T12:50:16.126Z,3.97
2018-04-12T12:52:45.339Z,3.40
2018-04-12T12:55:14.569Z,2.03
2018-04-12T12:57:43.810Z,3.70
2018-04-12T13:00:13.056Z,1.27
2018-04-12T13:02:42.209Z,2.33
2018-04-12T13:05:11.385Z,2.90
2018-04-12T13:07:40.620Z,1.87
2018-04-12T13:10:09.777Z,4.10
2018-04-12T13:12:38.960Z,2.27
2018-04-12T13:15:08.301Z,2.83
2018-04-12T13:17:37.394Z,3.80
2018-04-12T13:20:06.687Z,2.33
2018-04-12T13:22:35.877Z,6.30
2018-04-12T13:25:05.330Z,5.40
2018-04-12T13:27:34.782Z,3.15
2018-04-12T13:30:04.023Z,2.58
2018-04-12T13:32:34.016Z,4.90
2018-04-12T13:35:03.221Z,2.23
2018-04-12T13:37:32.401Z,5.10
2018-04-12T13:40:01.621Z,4.03
2018-04-12T13:42:30.946Z,3.03
2018-04-12T13:45:00.942Z,3.27
2018-04-12T13:47:30.176Z,6.93
2018-04-12T13:49:59.360Z,4.50
2018-04-12T13:52:28.595Z,6.90
2018-04-12T13:54:57.886Z,7.90
2018-04-12T13:57:28.336Z,3.43
2018-04-12T13:59:57.695Z,7.07
2018-04-12T14:02:26.875Z,8.30
2018-04-12T14:04:56.168Z,5.93
2018-04-12T14:07:25.462Z,4.10
2018-04-12T14:09:54.719Z,4.30
2018-04-12T14:12:23.980Z,4.77
2018-04-12T14:14:53.229Z,5.57
2018-04-12T14:17:22.463Z,5.87
2018-04-12T14:19:52.395Z,5.03
2018-04-12T14:22:21.668Z,3.83
2018-04-12T14:24:50.864Z,6.70
2018-04-12T14:27:20.070Z,3.73
2018-04-12T14:29:50.099Z,5.53
2018-04-12T14:32:19.352Z,4.10
2018-04-12T14:34:48.536Z,5.67
2018-04-12T14:37:17.782Z,4.63
2018-04-12T14:39:46.971Z,7.80
2018-04-12T14:42:16.201Z,4.47
2018-04-12T14:44:45.396Z,5.17
2018-04-12T14:47:14.616Z,6.17
2018-04-12T14:49:43.866Z,6.57
2018-04-12T14:52:13.847Z,6.30
2018-04-12T14:54:43.077Z,6.33
2018-04-12T14:57:12.372Z,4.07
2018-04-12T14:59:41.563Z,4.87
2018-04-12T15:02:10.752Z,4.03
2018-04-12T15:04:39.974Z,3.43
2018-04-12T15:07:09.179Z,4.80
2018-04-12T15:09:38.357Z,6.37
2018-04-12T15:12:09.531Z,4.07
2018-04-12T15:14:38.795Z,4.47
2018-04-12T15:17:08.851Z,3.80
2018-04-12T15:19:41.685Z,3.90
2018-04-12T15:22:10.713Z,5.20
2018-04-12T15:24:39.917Z,5.27
2018-04-12T15:27:12.920Z,4.30
2018-04-12T15:29:42.165Z,4.03
2018-04-12T15:32:11.604Z,4.50
2018-04-12T15:34:41.594Z,5.83
2018-04-12T15:37:10.784Z,2.30
2018-04-12T15:39:39.983Z,3.37
2018-04-12T15:42:09.241Z,4.37
2018-04-12T15:44:38.470Z,2.13
2018-04-12T15:47:07.676Z,4.37
2018-04-12T15:49:36.860Z,2.17
2018-04-12T15:52:05.967Z,4.67
2018-04-12T15:54:35.095Z,2.60
2018-04-12T15:57:05.058Z,4.83
2018-04-12T15:59:34.259Z,2.57
2018-04-12T16:02:03.539Z,3.03
2018-04-12T16:04:32.795Z,3.90
2018-04-12T16:07:02.858Z,3.53
2018-04-12T16:09:32.120Z,3.70
2018-04-12T16:12:05.936Z,2.10
2018-04-12T16:14:35.195Z,2.53
2018-04-12T16:17:04.420Z,2.57
2018-04-12T16:19:33.699Z,5.17
2018-04-12T16:22:02.827Z,4.40
2018-04-12T16:24:35.671Z,5.40
2018-04-12T16:27:04.819Z,3.63
2018-04-12T16:29:35.030Z,4.10
2018-04-12T16:32:05.825Z,3.97
2018-04-12T16:34:35.046Z,5.87
2018-04-12T16:37:04.325Z,3.13
2018-04-12T16:39:34.352Z,4.00
2018-04-12T16:42:03.563Z,5.17
2018-04-12T16:44:33.592Z,3.67
2018-04-12T16:47:02.897Z,2.13
2018-04-12T16:49:32.564Z,6.83
2018-04-12T16:52:02.715Z,6.00
2018-04-12T16:54:31.948Z,4.43
2018-04-12T16:57:01.270Z,4.90
2018-04-12T16:59:30.920Z,4.47
2018-04-12T17:02:00.248Z,2.30
2018-04-12T17:04:33.267Z,3.70
2018-04-12T17:07:02.899Z,5.20
2018-04-12T17:09:32.151Z,3.13
2018-04-12T17:12:02.069Z,4.43
2018-04-12T17:14:31.368Z,5.90
2018-04-12T17:17:00.626Z,5.13
2018-04-12T17:19:29.849Z,3.67
2018-04-12T17:21:59.829Z,4.50
2018-04-12T17:24:29.008Z,3.80
2018-04-12T17:26:57.992Z,1.83
2018-04-12T17:29:27.195Z,2.83
2018-04-12T17:31:56.377Z,2.23
2018-04-12T17:34:25.559Z,4.87
2018-04-12T17:36:54.703Z,3.90
2018-04-12T17:39:24.221Z,3.63
2018-04-12T17:41:53.549Z,4.13
2018-04-12T17:44:23.599Z,5.80
2018-04-12T17:46:52.840Z,3.20
2018-04-12T17:49:22.822Z,2.43
2018-04-12T17:51:52.223Z,7.57
2018-04-12T17:54:21.523Z,2.43
2018-04-12T17:56:51.495Z,2.00
2018-04-12T17:59:21.595Z,3.80
2018-04-12T18:01:50.768Z,2.73
2018-04-12T18:04:19.799Z,5.10
2018-04-12T18:06:48.956Z,5.43
2018-04-12T18:09:18.189Z,3.27
2018-04-12T18:11:47.391Z,3.33
2018-04-12T18:14:16.618Z,4.20
2018-04-12T18:16:46.579Z,3.13
2018-04-12T18:19:15.878Z,2.43
2018-04-12T18:21:45.168Z,5.17
2018-04-12T18:24:15.148Z,2.90
2018-04-12T18:26:44.415Z,2.67
2018-04-12T18:29:13.672Z,1.93
2018-04-12T18:31:42.896Z,1.50
2018-04-12T18:34:12.285Z,2.57
2018-04-12T18:36:41.517Z,1.93
2018-04-12T18:39:10.510Z,1.93
2018-04-12T18:41:39.719Z,3.07
2018-04-12T18:44:08.966Z,3.30
2018-04-12T18:46:38.134Z,2.23
2018-04-12T18:49:08.113Z,3.37
2018-04-12T18:51:38.064Z,2.23
2018-04-12T18:54:07.294Z,3.03
2018-04-12T18:56:36.599Z,2.90
2018-04-12T18:59:06.004Z,3.30
2018-04-12T19:01:35.198Z,2.43
2018-04-12T19:04:04.419Z,2.20
2018-04-12T19:06:33.734Z,2.10
2018-04-12T19:09:03.077Z,3.13
2018-04-12T19:11:32.335Z,2.47
2018-04-12T19:14:01.732Z,4.47
2018-04-12T19:16:31.703Z,3.30
2018-04-12T19:19:00.812Z,2.40
2018-04-12T19:21:30.037Z,2.70
2018-04-12T19:23:59.924Z,2.67
2018-04-12T19:26:29.139Z,4.03
2018-04-12T19:28:58.374Z,2.00
2018-04-12T19:31:28.456Z,4.60
2018-04-12T19:33:57.899Z,3.33
2018-04-12T19:36:27.847Z,3.27
2018-04-12T19:38:57.015Z,2.60
2018-04-12T19:41:27.116Z,1.93
2018-04-12T19:43:56.946Z,4.30
2018-04-12T19:46:26.891Z,2.50
2018-04-12T19:48:55.878Z,2.17
2018-04-12T19:51:25.025Z,3.47
2018-04-12T19:53:54.993Z,3.77
2018-04-12T19:56:24.223Z,3.43
2018-04-12T19:58:53.445Z,2.00
2018-04-12T20:01:23.495Z,1.87
2018-04-12T20:03:52.666Z,4.70
2018-04-12T20:06:22.692Z,4.30
2018-04-12T20:08:51.896Z,4.23
2018-04-12T20:11:21.120Z,2.37
2018-04-12T20:13:50.364Z,2.70
2018-04-12T20:16:20.028Z,3.40
2018-04-12T20:18:49.548Z,4.13
2018-04-12T20:21:18.749Z,4.30
2018-04-12T20:23:47.945Z,2.13
2018-04-12T20:26:17.240Z,3.60
2018-04-12T20:28:46.475Z,3.07
2018-04-12T20:31:15.711Z,2.63
2018-04-12T20:33:44.941Z,1.93
2018-04-12T20:36:14.447Z,4.47
2018-04-12T20:38:43.640Z,3.17
2018-04-12T20:41:13.058Z,2.13
2018-04-12T20:43:42.243Z,1.73
2018-04-12T20:46:11.727Z,4.57
2018-04-12T20:48:41.052Z,2.83
2018-04-12T20:51:10.282Z,4.80
2018-04-12T20:53:40.165Z,2.67
2018-04-12T20:56:09.415Z,3.07
2018-04-12T20:58:38.735Z,3.90
2018-04-12T21:01:08.016Z,2.43
2018-04-12T21:03:37.189Z,3.37
2018-04-12T21:06:07.112Z,4.30
2018-04-12T21:08:36.327Z,2.73
2018-04-12T21:11:05.845Z,2.47
2018-04-12T21:13:35.031Z,2.60
2018-04-12T21:16:04.248Z,3.27
2018-04-12T21:18:33.573Z,3.27
2018-04-12T21:21:02.976Z,2.03
2018-04-12T21:23:32.110Z,4.87
2018-04-12T21:26:01.317Z,3.67
2018-04-12T21:28:31.310Z,1.63
2018-04-12T21:31:00.544Z,4.70
2018-04-12T21:33:29.986Z,3.00
2018-04-12T21:36:00.001Z,3.40
2018-04-12T21:38:29.292Z,3.20
2018-04-12T21:40:58.541Z,4.77
2018-04-12T21:43:27.880Z,2.47
2018-04-12T21:45:57.302Z,6.03
2018-04-12T21:48:26.503Z,3.27
2018-04-12T21:50:55.800Z,2.10
2018-04-12T21:53:25.308Z,3.57
2018-04-12T21:55:54.528Z,2.53
2018-04-12T21:58:24.015Z,6.37
2018-04-12T22:00:53.307Z,3.67
2018-04-12T22:03:22.468Z,4.43
2018-04-12T22:05:51.806Z,3.80
2018-04-12T22:08:20.984Z,5.33
2018-04-12T22:10:50.283Z,4.40
2018-04-12T22:13:19.507Z,3.27
2018-04-12T22:15:48.704Z,3.93
2018-04-12T22:18:18.329Z,3.57
2018-04-12T22:20:48.431Z,4.47
2018-04-12T22:23:17.668Z,2.97
2018-04-12T22:25:47.679Z,6.90
2018-04-12T22:28:16.831Z,3.20
2018-04-12T22:30:46.140Z,3.87
2018-04-12T22:33:15.460Z,4.30
2018-04-12T22:35:44.842Z,5.83
2018-04-12T22:38:14.040Z,4.80
2018-04-12T22:40:43.237Z,3.73
2018-04-12T22:43:12.702Z,3.53
2018-04-12T22:45:42.472Z,5.50
2018-04-12T22:48:11.894Z,3.57
2018-04-12T22:50:41.156Z,5.93
2018-04-12T22:53:10.396Z,4.77
2018-04-12T22:55:40.308Z,7.17
2018-04-12T22:58:09.538Z,5.80
2018-04-12T23:00:38.957Z,6.80
2018-04-12T23:03:08.175Z,3.73
2018-04-12T23:05:37.375Z,3.23
2018-04-12T23:08:06.540Z,5.13
2018-04-12T23:10:35.854Z,6.30
2018-04-12T23:13:05.195Z,4.27
2018-04-12T23:15:35.216Z,5.60
2018-04-12T23:18:04.391Z,2.93
2018-04-12T23:20:33.602Z,4.67
2018-04-12T23:23:03.694Z,6.03
2018-04-12T23:25:33.100Z,5.17
2018-04-12T23:28:02.347Z,4.13
2018-04-12T23:30:31.518Z,5.00
2018-04-12T23:33:00.933Z,3.13
2018-04-12T23:35:31.112Z,5.57
2018-04-12T23:38:00.413Z,3.20
2018-04-12T23:40:29.656Z,5.73
2018-04-12T23:42:58.680Z,6.20
2018-04-12T23:45:28.016Z,6.17
2018-04-12T23:47:57.316Z,3.73
2018-04-12T23:50:26.550Z,4.17
2018-04-12T23:52:55.816Z,4.63
2018-04-12T23:55:25.014Z,4.33
2018-04-12T23:57:54.323Z,3.40
